Rumley, Arkansas
Current Conditions -  °F | °C
As of 1:35 PM on Thursday 23 Oct 2014 (Local Time) from KFLP Reporting Station
Few Clouds Few Clouds  
Wind Chill: 61°   Ceiling: Unl
Heat Index: 61°   Visibility: 10mi
Dew Point: 45°   Wind: 5mph
Humidity: 55%   Direction: 170°S
Pressure: 30.17"   Gusts: NA
Location:  35.8223°N, 92.5849°W
Report Text: KFLP 231835Z AUTO 17004KT 10SM FEW046 16/07 A3017 RMK AO1
Loading
Personal Weather Stations






























Interactive Weather Map
Tropical Storm Tracking
New forecast layout! Learn more

10-Day Weather Forecast

Advertisements
Track Severe Weather on mobile